Time;durP1;ratioP1;P1;durP2;ratioP2;P2;SDS_P1;SDS_P2;PMS_P1;PMS_P2;Temp;Humidity;BMP_temperature;BMP_pressure;BME280_temperature;BME280_humidity;BME280_pressure;Samples;Min_cycle;Max_cycle;Signal;HPM_P1;HPM_P2
2022/04/18 00:01:19;;;;;;;5.47;1.70;;;12.20;39.80;;;;;;5016377;28;20022;-71
2022/04/18 00:03:45;;;;;;;6.30;2.17;;;12.20;39.90;;;;;;5015694;28;20029;-73
2022/04/18 00:06:11;;;;;;;5.88;2.08;;;12.20;40.00;;;;;;5015824;28;20048;-72
2022/04/18 00:08:36;;;;;;;3.33;1.60;;;12.20;40.00;;;;;;5015815;28;20025;-74
2022/04/18 00:11:02;;;;;;;3.70;1.80;;;12.20;40.10;;;;;;5015644;28;20029;-74
2022/04/18 00:13:28;;;;;;;3.67;1.70;;;12.30;39.90;;;;;;5015351;28;20030;-73
2022/04/18 00:15:54;;;;;;;3.80;2.03;;;12.20;40.30;;;;;;5015232;28;20120;-73
2022/04/18 00:18:19;;;;;;;7.57;2.10;;;12.20;39.90;;;;;;5015402;28;20456;-72
2022/04/18 00:20:45;;;;;;;4.72;1.70;;;12.20;39.60;;;;;;5015656;28;20512;-74
2022/04/18 00:23:11;;;;;;;5.10;1.90;;;12.20;39.50;;;;;;5015633;28;20041;-73
2022/04/18 00:25:36;;;;;;;3.22;1.70;;;12.20;39.70;;;;;;5015686;28;20105;-73
2022/04/18 00:28:02;;;;;;;4.53;1.80;;;12.10;39.40;;;;;;5015489;28;20045;-75
2022/04/18 00:30:28;;;;;;;4.20;1.80;;;12.10;39.30;;;;;;5015339;28;20025;-74
2022/04/18 00:32:54;;;;;;;4.53;1.50;;;12.10;39.70;;;;;;5015686;28;20034;-72
2022/04/18 00:35:19;;;;;;;4.47;1.65;;;12.00;39.40;;;;;;5015315;28;20106;-75
2022/04/18 00:37:45;;;;;;;3.92;1.75;;;12.10;39.30;;;;;;5015321;28;20491;-71
2022/04/18 00:40:12;;;;;;;4.68;1.90;;;12.00;39.50;;;;;;5015273;28;20387;-74
2022/04/18 00:42:44;;;;;;;3.33;1.80;;;12.00;39.70;;;;;;5015146;28;20029;-74
2022/04/18 00:45:10;;;;;;;4.20;1.73;;;12.00;39.20;;;;;;5015035;28;20033;-72
2022/04/18 00:47:36;;;;;;;4.50;1.75;;;12.00;39.50;;;;;;5014891;28;20551;-74
2022/04/18 00:50:02;;;;;;;3.25;1.52;;;12.00;39.40;;;;;;5014976;28;20114;-73
2022/04/18 00:52:30;;;;;;;4.70;1.83;;;12.00;39.20;;;;;;5015297;28;20014;-71
2022/04/18 00:55:00;;;;;;;3.75;1.63;;;12.00;39.20;;;;;;5014953;28;20029;-73
2022/04/18 00:57:27;;;;;;;5.05;1.75;;;12.00;39.20;;;;;;5014825;28;20029;-71
2022/04/18 00:59:53;;;;;;;5.82;1.75;;;12.00;39.50;;;;;;5014684;28;20085;-71
2022/04/18 01:02:19;;;;;;;4.20;1.90;;;12.20;39.50;;;;;;5014716;28;20423;-72
2022/04/18 01:04:45;;;;;;;4.35;1.70;;;12.20;39.40;;;;;;5013747;28;20034;-72
2022/04/18 01:07:12;;;;;;;2.65;1.60;;;12.20;39.10;;;;;;5014760;28;20406;-70
2022/04/18 01:09:38;;;;;;;4.75;1.90;;;12.10;38.90;;;;;;5014916;28;20026;-74
2022/04/18 01:12:04;;;;;;;3.38;1.50;;;12.10;38.90;;;;;;5014361;28;20026;-71
2022/04/18 01:14:30;;;;;;;4.88;1.60;;;12.10;38.60;;;;;;5014692;28;20030;-71
2022/04/18 01:16:55;;;;;;;4.47;1.80;;;12.00;39.00;;;;;;5014740;28;20046;-72
2022/04/18 01:19:21;;;;;;;6.70;1.67;;;12.00;38.80;;;;;;5014740;28;20034;-73
2022/04/18 01:21:47;;;;;;;4.05;1.75;;;12.00;38.70;;;;;;5014570;28;20026;-73
2022/04/18 01:29:50;;;;;;;4.15;1.63;;;11.90;39.00;;;;;;5015024;28;20108;-72
2022/04/18 01:32:15;;;;;;;5.25;1.80;;;11.90;39.20;;;;;;5014767;28;20029;-73
2022/04/18 01:34:41;;;;;;;4.35;1.73;;;11.90;39.00;;;;;;5014468;28;20108;-71
2022/04/18 01:37:07;;;;;;;3.38;1.73;;;11.90;39.10;;;;;;5014255;28;20069;-74
2022/04/18 01:39:32;;;;;;;4.72;1.80;;;11.80;39.00;;;;;;5013949;28;20052;-72
2022/04/18 01:41:58;;;;;;;3.83;1.63;;;11.80;39.10;;;;;;5014211;28;20022;-73
2022/04/18 01:44:24;;;;;;;3.55;1.70;;;11.70;39.20;;;;;;5013920;28;20037;-72
2022/04/18 01:46:50;;;;;;;3.63;1.50;;;11.80;39.50;;;;;;5014174;28;20045;-70
2022/04/18 01:49:16;;;;;;;3.53;1.40;;;11.80;39.40;;;;;;5013831;28;20045;-71
2022/04/18 01:51:41;;;;;;;2.65;1.50;;;11.80;39.50;;;;;;5013698;28;20029;-70
2022/04/18 01:54:07;;;;;;;5.25;1.70;;;11.80;39.50;;;;;;5013920;28;20033;-71
2022/04/18 01:56:33;;;;;;;4.75;1.77;;;11.80;39.60;;;;;;5014040;28;20036;-73
2022/04/18 01:58:59;;;;;;;3.17;1.75;;;11.80;39.50;;;;;;5013719;28;20065;-72
2022/04/18 02:01:25;;;;;;;3.33;1.48;;;11.70;39.50;;;;;;5013889;28;20386;-71
2022/04/18 02:03:50;;;;;;;3.03;1.58;;;11.60;39.50;;;;;;5012377;28;20034;-75
2022/04/18 02:06:16;;;;;;;6.13;2.85;;;11.50;39.50;;;;;;5013640;28;20054;-74
2022/04/18 02:08:42;;;;;;;3.05;1.63;;;11.50;39.90;;;;;;5013705;28;20379;-72
2022/04/18 02:11:07;;;;;;;4.82;1.95;;;11.50;39.90;;;;;;5014309;28;20034;-73
2022/04/18 02:13:33;;;;;;;4.15;1.73;;;11.40;40.00;;;;;;5013824;28;20033;-73
2022/04/18 02:15:59;;;;;;;6.45;1.98;;;11.40;39.90;;;;;;5013615;28;20092;-75
2022/04/18 02:18:25;;;;;;;3.55;1.95;;;11.40;40.10;;;;;;5013273;28;20172;-71
2022/04/18 02:20:51;;;;;;;5.72;2.00;;;11.40;40.10;;;;;;5013163;28;20113;-71
2022/04/18 02:23:16;;;;;;;4.03;1.60;;;11.50;40.30;;;;;;5013371;28;20025;-72
2022/04/18 02:25:42;;;;;;;3.88;1.95;;;11.50;40.20;;;;;;5012964;28;20407;-74
2022/04/18 02:28:07;;;;;;;3.10;1.80;;;11.40;40.10;;;;;;5013159;28;20026;-74
2022/04/18 02:30:33;;;;;;;3.10;1.77;;;11.50;40.20;;;;;;5013440;28;20034;-72
2022/04/18 02:32:59;;;;;;;3.97;1.80;;;11.50;40.20;;;;;;5013143;28;20033;-73
2022/04/18 02:35:26;;;;;;;6.18;1.73;;;11.40;39.90;;;;;;5012759;28;20018;-75
2022/04/18 02:37:53;;;;;;;5.03;1.70;;;11.40;40.10;;;;;;5012653;28;20034;-71
2022/04/18 02:40:20;;;;;;;3.30;1.60;;;11.40;40.10;;;;;;5013251;28;20026;-72
2022/04/18 02:42:46;;;;;;;3.35;1.63;;;11.30;40.30;;;;;;5013122;28;20034;-74
2022/04/18 02:45:23;;;;;;;4.07;1.83;;;11.30;40.30;;;;;;5011515;28;20084;-73
2022/04/18 02:47:48;;;;;;;3.20;1.60;;;11.30;40.50;;;;;;5012636;28;20423;-71
2022/04/18 02:50:14;;;;;;;4.43;1.73;;;11.30;40.50;;;;;;5011523;28;20467;-75
2022/04/18 02:52:40;;;;;;;3.97;1.65;;;11.30;40.60;;;;;;5013152;28;20062;-71
2022/04/18 02:55:06;;;;;;;4.35;1.70;;;11.20;40.50;;;;;;5013923;28;20080;-73
2022/04/18 02:57:32;;;;;;;5.30;2.63;;;11.30;40.60;;;;;;5012844;28;20030;-74
2022/04/18 02:59:58;;;;;;;2.65;1.70;;;11.30;40.60;;;;;;5013110;28;20471;-70
2022/04/18 03:02:24;;;;;;;3.10;1.70;;;11.20;40.60;;;;;;5012729;28;20026;-71
2022/04/18 03:04:49;;;;;;;5.80;1.60;;;11.20;40.60;;;;;;5011336;28;20117;-71
2022/04/18 03:07:15;;;;;;;5.28;1.75;;;11.20;40.90;;;;;;5012575;28;20018;-72
2022/04/18 03:09:41;;;;;;;5.07;1.73;;;11.20;40.70;;;;;;5012698;28;20471;-71
2022/04/18 03:12:07;;;;;;;3.70;1.80;;;11.10;41.00;;;;;;5012383;28;20101;-72
2022/04/18 03:14:32;;;;;;;3.65;1.90;;;11.10;40.70;;;;;;5012588;28;20026;-72
2022/04/18 03:16:59;;;;;;;4.35;1.80;;;11.10;40.80;;;;;;5013195;28;20117;-72
2022/04/18 03:19:25;;;;;;;2.80;1.60;;;11.10;40.80;;;;;;5012898;28;20092;-77
2022/04/18 03:21:51;;;;;;;5.05;1.75;;;11.10;40.90;;;;;;5012833;28;20434;-73
2022/04/18 03:24:17;;;;;;;3.65;1.70;;;11.10;40.70;;;;;;5012315;28;20029;-74
2022/04/18 03:26:42;;;;;;;6.65;1.83;;;11.10;40.60;;;;;;5012852;28;20034;-73
2022/04/18 03:29:08;;;;;;;3.72;1.88;;;11.10;40.60;;;;;;5011524;28;20028;-71
2022/04/18 03:31:34;;;;;;;5.45;1.85;;;11.00;40.70;;;;;;5011313;28;20514;-72
2022/04/18 03:33:59;;;;;;;4.75;1.60;;;11.10;40.80;;;;;;5012336;28;20029;-72
2022/04/18 03:41:53;;;;;;;4.22;1.70;;;11.10;40.60;;;;;;5012502;28;20450;-71
2022/04/18 03:44:19;;;;;;;3.92;1.80;;;11.10;40.60;;;;;;5012254;28;20022;-71
2022/04/18 03:46:45;;;;;;;5.45;1.73;;;11.10;40.70;;;;;;5012681;28;20042;-72
2022/04/18 03:49:10;;;;;;;4.05;1.88;;;11.10;40.70;;;;;;5012749;28;20132;-72
2022/04/18 03:51:36;;;;;;;5.07;2.10;;;11.10;40.90;;;;;;5015971;28;20098;-72
2022/04/18 03:54:02;;;;;;;3.72;1.70;;;11.10;41.00;;;;;;5015862;28;20518;-71
2022/04/18 03:56:28;;;;;;;4.75;1.88;;;11.00;40.80;;;;;;5015934;28;20387;-72
2022/04/18 03:58:53;;;;;;;3.95;1.90;;;10.90;40.70;;;;;;5016094;28;20045;-72
2022/04/18 04:01:19;;;;;;;6.60;2.08;;;10.90;41.10;;;;;;5014723;28;20033;-71
2022/04/18 04:03:45;;;;;;;3.42;1.63;;;10.90;41.20;;;;;;5015629;28;20435;-71
2022/04/18 04:06:10;;;;;;;5.35;2.00;;;10.90;41.20;;;;;;5015729;28;20041;-72
2022/04/18 04:08:36;;;;;;;3.95;1.70;;;10.90;42.00;;;;;;5015752;28;20030;-74
2022/04/18 04:11:02;;;;;;;6.07;1.88;;;10.80;41.20;;;;;;5015878;28;20033;-71
2022/04/18 04:13:27;;;;;;;7.95;2.22;;;10.90;41.20;;;;;;5015483;28;20045;-73
2022/04/18 04:15:53;;;;;;;5.03;1.90;;;10.90;41.20;;;;;;5015265;28;20026;-71
2022/04/18 04:18:19;;;;;;;5.18;1.90;;;10.90;41.10;;;;;;5015262;28;20448;-70
2022/04/18 04:20:44;;;;;;;4.22;1.92;;;11.00;41.00;;;;;;5015615;28;20049;-71
2022/04/18 04:23:10;;;;;;;5.65;1.63;;;10.90;40.80;;;;;;5015525;28;20030;-72
2022/04/18 04:25:36;;;;;;;4.80;2.00;;;10.90;40.90;;;;;;5014072;28;20040;-71
2022/04/18 04:28:01;;;;;;;4.03;1.90;;;10.90;41.00;;;;;;5013912;28;20459;-72
2022/04/18 04:30:27;;;;;;;5.60;1.88;;;10.90;41.10;;;;;;5015436;28;20037;-71
2022/04/18 04:32:53;;;;;;;4.65;1.85;;;10.90;41.10;;;;;;5015323;28;20029;-73
2022/04/18 04:35:18;;;;;;;5.18;1.95;;;10.90;41.00;;;;;;5015239;28;20451;-72
2022/04/18 04:37:44;;;;;;;3.67;1.80;;;10.80;41.20;;;;;;5015100;28;20030;-71
2022/04/18 04:40:11;;;;;;;3.90;2.17;;;10.90;41.10;;;;;;5015326;28;20026;-72
2022/04/18 04:42:37;;;;;;;6.18;2.10;;;10.90;41.30;;;;;;5015410;28;20492;-72
2022/04/18 04:45:03;;;;;;;5.70;2.38;;;10.90;41.20;;;;;;5014919;28;20030;-72
2022/04/18 04:47:28;;;;;;;4.60;2.10;;;10.90;41.30;;;;;;5015298;28;20092;-73
2022/04/18 04:49:54;;;;;;;4.38;1.98;;;10.90;41.30;;;;;;5014904;28;20030;-71
2022/04/18 04:52:20;;;;;;;5.70;1.95;;;10.90;41.10;;;;;;5015115;28;20033;-72
2022/04/18 04:54:46;;;;;;;4.82;2.10;;;10.90;41.10;;;;;;5014949;28;20030;-73
2022/04/18 04:57:12;;;;;;;7.30;2.10;;;10.80;41.20;;;;;;5014724;28;20026;-71
2022/04/18 04:59:37;;;;;;;5.97;2.10;;;10.80;41.30;;;;;;5014726;28;20083;-72
2022/04/18 05:02:05;;;;;;;6.60;1.90;;;10.90;41.60;;;;;;5014546;28;20030;-72
2022/04/18 05:04:31;;;;;;;4.93;1.83;;;10.80;41.10;;;;;;5014625;28;20026;-72
2022/04/18 05:06:57;;;;;;;4.30;1.88;;;10.90;41.40;;;;;;5015407;28;20121;-72
2022/04/18 05:09:22;;;;;;;6.35;1.88;;;10.90;41.20;;;;;;5014750;28;20058;-71
2022/04/18 05:11:48;;;;;;;4.43;1.90;;;10.90;41.00;;;;;;5015136;28;20033;-71
2022/04/18 05:14:15;;;;;;;7.15;1.95;;;10.90;41.00;;;;;;5013134;28;20030;-76
2022/04/18 05:16:41;;;;;;;4.43;2.00;;;11.00;41.00;;;;;;5014893;28;20025;-71
2022/04/18 05:19:07;;;;;;;4.40;2.17;;;11.00;41.00;;;;;;5014689;28;20026;-71
2022/04/18 05:21:32;;;;;;;5.63;2.33;;;11.00;41.00;;;;;;5014219;28;20055;-73
2022/04/18 05:23:58;;;;;;;5.03;1.92;;;11.10;41.20;;;;;;5014511;28;20029;-72
2022/04/18 05:26:24;;;;;;;8.57;2.10;;;11.10;40.90;;;;;;5014599;28;20030;-72
2022/04/18 05:28:49;;;;;;;5.82;2.05;;;11.00;40.80;;;;;;5014726;28;20045;-71
2022/04/18 05:31:17;;;;;;;5.03;2.20;;;11.10;41.10;;;;;;5014214;28;20438;-76
2022/04/18 05:33:43;;;;;;;6.85;2.10;;;11.10;41.40;;;;;;5013954;28;20057;-70
2022/04/18 05:36:09;;;;;;;6.75;2.05;;;11.10;41.00;;;;;;5012915;28;20033;-71
2022/04/18 05:38:35;;;;;;;4.95;2.08;;;11.10;41.10;;;;;;5013919;28;20092;-71
2022/04/18 05:41:01;;;;;;;6.55;2.13;;;11.20;41.00;;;;;;5012689;28;20034;-71
2022/04/18 05:43:28;;;;;;;6.70;2.20;;;11.20;41.00;;;;;;5013733;28;20018;-70
2022/04/18 05:45:53;;;;;;;8.30;2.67;;;11.30;40.80;;;;;;5013925;28;20022;-72
2022/04/18 05:48:19;;;;;;;5.07;2.33;;;11.40;40.70;;;;;;5013742;28;20549;-71
2022/04/18 05:50:45;;;;;;;8.90;1.98;;;11.60;40.60;;;;;;5013709;28;20306;-71
2022/04/18 05:53:14;;;;;;;7.57;2.22;;;11.70;40.30;;;;;;5013627;28;20410;-72
2022/04/18 05:55:41;;;;;;;5.70;1.88;;;11.90;40.30;;;;;;5012339;28;20112;-71
2022/04/18 05:58:07;;;;;;;6.97;2.03;;;12.10;40.20;;;;;;5013715;28;20125;-70
2022/04/18 06:00:34;;;;;;;5.47;2.08;;;12.30;40.20;;;;;;5013859;28;20069;-71
2022/04/18 06:03:03;;;;;;;4.60;1.80;;;12.40;40.00;;;;;;5013699;28;20117;-72
2022/04/18 06:05:29;;;;;;;4.57;2.22;;;12.50;40.10;;;;;;5013704;28;20084;-70
2022/04/18 06:07:55;;;;;;;5.90;2.20;;;12.70;39.60;;;;;;5013619;28;20014;-72
2022/04/18 06:10:21;;;;;;;7.05;2.13;;;12.80;39.70;;;;;;5013284;28;20392;-70
2022/04/18 06:12:47;;;;;;;8.30;2.13;;;12.90;39.60;;;;;;5012785;28;20026;-71
2022/04/18 06:15:12;;;;;;;5.20;1.92;;;13.00;39.50;;;;;;5013089;28;20037;-72
2022/04/18 06:17:38;;;;;;;5.07;1.80;;;13.20;39.40;;;;;;5013439;28;20523;-71
2022/04/18 06:20:05;;;;;;;7.55;2.00;;;13.30;39.30;;;;;;5013230;28;20163;-72
2022/04/18 06:22:31;;;;;;;4.93;2.00;;;13.40;38.70;;;;;;5013197;28;20391;-72
2022/04/18 06:24:57;;;;;;;5.63;2.28;;;13.50;38.90;;;;;;5012963;28;20049;-71
2022/04/18 06:27:22;;;;;;;4.50;1.80;;;13.80;39.50;;;;;;5013099;28;20037;-71
2022/04/18 06:29:48;;;;;;;5.03;1.80;;;14.00;39.10;;;;;;5012988;28;20056;-71
2022/04/18 06:32:14;;;;;;;5.53;1.90;;;14.10;38.50;;;;;;5012866;28;20099;-72
2022/04/18 06:34:40;;;;;;;7.75;2.05;;;14.20;38.30;;;;;;5013065;28;20167;-73
2022/04/18 06:37:05;;;;;;;8.48;2.33;;;14.30;38.10;;;;;;5012832;28;20058;-69
2022/04/18 06:39:31;;;;;;;6.50;2.05;;;14.40;37.50;;;;;;5012763;28;20037;-70
2022/04/18 06:41:57;;;;;;;7.65;2.05;;;14.40;37.50;;;;;;5012961;28;20032;-74
2022/04/18 06:44:24;;;;;;;3.28;1.80;;;14.40;37.40;;;;;;5012805;28;20379;-73
2022/04/18 06:46:50;;;;;;;5.85;2.03;;;14.50;37.40;;;;;;5012869;28;20125;-70
2022/04/18 06:49:15;;;;;;;5.22;1.92;;;14.80;37.90;;;;;;5012913;28;20501;-72
2022/04/18 06:51:41;;;;;;;4.97;1.90;;;15.00;37.70;;;;;;5012643;28;20459;-71
2022/04/18 06:54:06;;;;;;;4.30;1.80;;;15.10;37.00;;;;;;5011697;28;20538;-72
2022/04/18 06:59:17;;;;;;;5.38;1.83;;;15.30;35.50;;;;;;5013010;28;20395;-72
2022/04/18 07:01:44;;;;;;;5.53;1.80;;;15.50;36.80;;;;;;5011801;28;20514;-75
2022/04/18 07:04:11;;;;;;;6.45;2.10;;;15.50;36.40;;;;;;5012724;28;20034;-74
2022/04/18 07:06:37;;;;;;;5.32;1.50;;;15.50;36.70;;;;;;5012617;28;20375;-73
2022/04/18 07:09:03;;;;;;;8.32;1.98;;;15.60;36.70;;;;;;5012684;28;20026;-71
2022/04/18 07:11:28;;;;;;;5.43;2.17;;;15.70;36.90;;;;;;5012772;28;20022;-72
2022/04/18 07:13:54;;;;;;;6.97;2.10;;;15.60;36.40;;;;;;5012838;28;20037;-71
2022/04/18 07:16:20;;;;;;;4.78;1.85;;;15.60;36.50;;;;;;5012644;28;20022;-72
2022/04/18 07:18:45;;;;;;;8.35;2.10;;;15.50;36.10;;;;;;5012673;28;20065;-72
2022/04/18 07:21:11;;;;;;;5.95;1.80;;;15.50;36.30;;;;;;5012760;28;20344;-73
2022/04/18 07:23:37;;;;;;;5.88;2.08;;;15.60;36.40;;;;;;5013647;28;20083;-72
2022/04/18 07:26:03;;;;;;;5.57;2.13;;;15.80;36.20;;;;;;5016473;28;20040;-72
2022/04/18 07:28:30;;;;;;;8.77;2.00;;;15.70;35.90;;;;;;5016529;28;20135;-71
2022/04/18 07:30:55;;;;;;;4.13;1.73;;;15.80;35.90;;;;;;5016603;28;20057;-71
2022/04/18 07:33:21;;;;;;;7.65;2.45;;;15.90;36.00;;;;;;5016272;28;20056;-71
2022/04/18 07:35:47;;;;;;;5.65;1.90;;;16.00;36.10;;;;;;5016382;28;20033;-70
2022/04/18 07:40:56;;;;;;;8.35;2.38;;;15.70;33.90;;;;;;5016407;28;20033;-72
2022/04/18 07:43:22;;;;;;;6.25;2.13;;;15.70;35.50;;;;;;5016273;28;20030;-72
2022/04/18 07:45:48;;;;;;;5.93;2.15;;;15.70;35.40;;;;;;5015870;28;20173;-71
2022/04/18 07:48:14;;;;;;;6.18;2.08;;;15.90;35.40;;;;;;5016400;28;20046;-75
2022/04/18 07:53:24;;;;;;;4.65;1.70;;;16.00;34.00;;;;;;5015774;28;20228;-70
2022/04/18 07:55:50;;;;;;;7.03;2.00;;;16.10;35.00;;;;;;5015885;28;20060;-79
2022/04/18 07:58:16;;;;;;;4.70;1.83;;;16.10;34.80;;;;;;5015659;28;20440;-71
2022/04/18 08:00:41;;;;;;;7.97;2.28;;;16.10;34.70;;;;;;5015652;28;20041;-73
2022/04/18 08:03:07;;;;;;;5.28;2.00;;;16.00;34.10;;;;;;5015608;28;20026;-74
2022/04/18 08:05:33;;;;;;;6.40;1.83;;;15.90;34.40;;;;;;5015578;28;20026;-72
2022/04/18 08:07:59;;;;;;;6.93;2.15;;;15.90;34.70;;;;;;5015733;28;20460;-75
2022/04/18 08:10:24;;;;;;;5.28;2.50;;;15.80;34.80;;;;;;5015665;28;20084;-73
2022/04/18 08:12:50;;;;;;;7.75;2.15;;;15.90;34.80;;;;;;5015783;28;20483;-73
2022/04/18 08:15:16;;;;;;;3.22;1.40;;;15.80;34.60;;;;;;5015387;28;20034;-71
2022/04/18 08:17:42;;;;;;;10.43;2.05;;;15.80;34.50;;;;;;5015506;28;20088;-72
2022/04/18 08:20:08;;;;;;;7.50;1.98;;;15.80;34.50;;;;;;5015459;28;20101;-73
2022/04/18 08:22:33;;;;;;;4.63;1.80;;;15.90;34.70;;;;;;5015292;28;20022;-76
2022/04/18 08:24:59;;;;;;;7.95;2.05;;;15.90;34.40;;;;;;5015319;28;20069;-75
2022/04/18 08:27:24;;;;;;;7.45;2.42;;;15.90;34.20;;;;;;5015506;28;20109;-77
2022/04/18 08:29:50;;;;;;;4.30;1.50;;;15.90;34.20;;;;;;5015460;28;20061;-76
2022/04/18 08:32:16;;;;;;;6.80;1.60;;;15.90;34.10;;;;;;5015340;28;20025;-81
2022/04/18 08:34:41;;;;;;;8.55;2.20;;;15.80;33.80;;;;;;5014727;28;20422;-75
2022/04/18 08:37:07;;;;;;;4.55;2.08;;;15.80;34.00;;;;;;5014842;28;20022;-74
2022/04/18 08:39:33;;;;;;;6.93;2.40;;;15.80;34.40;;;;;;5015241;28;20479;-76
2022/04/18 08:41:59;;;;;;;8.73;3.08;;;15.90;34.80;;;;;;5014988;28;20084;-76
2022/04/18 08:44:28;;;;;;;8.75;2.33;;;15.90;34.60;;;;;;5014916;28;20018;-78
2022/04/18 08:46:57;;;;;;;8.65;2.20;;;16.00;34.60;;;;;;5014598;28;20482;-74
2022/04/18 08:54:53;;;;;;;7.07;1.90;;;16.10;33.80;;;;;;5014996;28;20037;-72
2022/04/18 08:57:19;;;;;;;5.88;2.08;;;16.10;33.90;;;;;;5014819;28;20141;-76
2022/04/18 08:59:44;;;;;;;8.43;2.30;;;16.20;33.80;;;;;;5014537;28;20072;-75
2022/04/18 09:02:10;;;;;;;5.25;1.95;;;16.20;33.60;;;;;;5013480;28;20022;-74
2022/04/18 09:04:36;;;;;;;5.47;1.85;;;16.30;33.70;;;;;;5014545;28;20034;-76
2022/04/18 09:07:15;;;;;;;5.18;1.70;;;16.30;33.60;;;;;;5014582;28;20084;-78
2022/04/18 09:09:41;;;;;;;8.15;1.80;;;16.30;33.10;;;;;;5014637;28;20156;-77
2022/04/18 09:12:21;;;;;;;7.38;1.80;;;16.30;32.30;;;;;;5014605;28;20053;-75
2022/04/18 09:14:48;;;;;;;4.25;1.88;;;16.30;33.00;;;;;;5014342;28;20032;-75
2022/04/18 09:17:33;;;;;;;5.20;1.90;;;16.30;33.00;;;;;;5014437;28;20018;-77
2022/04/18 09:20:10;;;;;;;5.88;1.90;;;16.30;33.10;;;;;;5014804;28;20033;-78
2022/04/18 09:22:46;;;;;;;4.55;2.00;;;16.40;32.50;;;;;;5014254;28;20041;-72
2022/04/18 09:25:19;;;;;;;3.83;1.73;;;16.60;33.00;;;;;;5014452;28;20030;-76
2022/04/18 09:27:56;;;;;;;4.57;1.88;;;16.60;32.70;;;;;;5014117;28;20037;-76
2022/04/18 09:30:23;;;;;;;14.10;2.30;;;16.60;32.70;;;;;;5012500;28;20116;-78
2022/04/18 09:33:09;;;;;;;5.43;1.85;;;16.60;32.00;;;;;;5013947;28;20040;-79
2022/04/18 09:35:35;;;;;;;5.50;2.05;;;16.70;32.00;;;;;;5013813;28;20050;-78
2022/04/18 09:38:04;;;;;;;5.75;1.80;;;16.90;32.40;;;;;;5012871;28;20040;-76
2022/04/18 09:40:35;;;;;;;6.20;2.05;;;17.00;31.70;;;;;;5013960;28;20034;-79
2022/04/18 09:43:01;;;;;;;6.05;1.90;;;17.10;31.00;;;;;;5014139;28;20117;-77
2022/04/18 09:45:26;;;;;;;6.57;2.13;;;17.20;30.80;;;;;;5013831;28;20185;-74
2022/04/18 09:47:57;;;;;;;5.03;2.10;;;17.20;31.10;;;;;;5011065;28;20081;-75
2022/04/18 09:53:26;;;;;;;4.75;1.80;;;17.50;30.60;;;;;;5013692;28;20033;-75
2022/04/18 09:55:54;;;;;;;8.00;2.60;;;17.80;31.00;;;;;;5013719;28;20033;-79
2022/04/18 09:58:21;;;;;;;4.68;2.10;;;18.00;30.30;;;;;;5012307;28;20033;-74
2022/04/18 10:00:49;;;;;;;6.28;1.85;;;18.10;30.00;;;;;;5013226;28;20080;-79
2022/04/18 10:03:14;;;;;;;3.95;2.10;;;18.10;29.90;;;;;;5011853;28;20054;-76
2022/04/18 10:05:41;;;;;;;5.50;1.92;;;18.00;30.00;;;;;;5013373;28;20058;-76
2022/04/18 10:08:07;;;;;;;7.45;2.20;;;17.90;30.10;;;;;;5013344;28;20021;-78
2022/04/18 10:10:36;;;;;;;7.65;1.88;;;17.80;30.00;;;;;;5013370;28;20030;-76
2022/04/18 10:13:06;;;;;;;5.18;1.90;;;17.70;29.90;;;;;;5013433;28;20088;-76
2022/04/18 10:15:34;;;;;;;8.90;1.90;;;17.70;29.80;;;;;;5013291;28;20104;-77
2022/04/18 10:18:03;;;;;;;4.53;2.17;;;17.70;29.80;;;;;;5013223;28;20068;-75
2022/04/18 10:20:53;;;;;;;8.68;1.98;;;17.70;29.60;;;;;;5013283;28;20372;-73
2022/04/18 10:23:40;;;;;;;5.88;1.92;;;17.70;29.80;;;;;;5013714;28;20124;-71
2022/04/18 10:26:42;;;;;;;7.72;1.92;;;17.70;29.80;;;;;;5013177;28;20431;-72
2022/04/18 10:29:12;;;;;;;8.90;2.33;;;17.80;29.50;;;;;;5013151;28;20030;-71
2022/04/18 10:31:40;;;;;;;5.60;2.30;;;17.90;29.70;;;;;;5013220;28;20025;-71
2022/04/18 10:34:07;;;;;;;8.52;2.17;;;18.10;29.80;;;;;;5012956;28;20021;-72
2022/04/18 10:36:34;;;;;;;5.28;1.83;;;18.20;29.80;;;;;;5012999;28;20022;-72
2022/04/18 10:39:07;;;;;;;6.18;1.92;;;18.20;29.40;;;;;;5012938;28;20041;-71
2022/04/18 10:41:37;;;;;;;5.78;2.20;;;18.20;29.00;;;;;;5012974;28;20476;-72
2022/04/18 10:44:07;;;;;;;7.72;2.05;;;18.10;28.70;;;;;;5012625;28;20514;-72
2022/04/18 10:46:38;;;;;;;5.35;1.83;;;18.20;29.00;;;;;;5012662;28;20046;-70
2022/04/18 10:49:13;;;;;;;3.40;1.70;;;18.20;29.60;;;;;;5013008;28;20134;-78
2022/04/18 10:51:40;;;;;;;6.30;1.95;;;18.30;29.30;;;;;;5013172;28;20041;-72
2022/04/18 10:54:18;;;;;;;5.82;1.90;;;18.40;29.00;;;;;;5012629;28;20491;-78
2022/04/18 10:56:49;;;;;;;5.80;2.03;;;18.40;28.60;;;;;;5012827;28;20061;-77
2022/04/18 10:59:20;;;;;;;6.75;2.00;;;18.50;28.50;;;;;;5013397;28;20164;-78
2022/04/18 11:01:48;;;;;;;6.35;2.40;;;18.50;28.60;;;;;;5013718;28;20026;-77
2022/04/18 11:04:14;;;;;;;7.03;2.25;;;18.60;28.90;;;;;;5011885;28;20434;-74
2022/04/18 11:06:45;;;;;;;6.03;1.90;;;18.60;28.50;;;;;;5012701;28;20036;-75
2022/04/18 11:09:16;;;;;;;4.43;2.10;;;18.70;28.60;;;;;;5012680;28;20032;-74
2022/04/18 11:12:01;;;;;;;7.05;1.92;;;18.70;28.90;;;;;;5012772;28;20022;-75
2022/04/18 11:14:43;;;;;;;6.55;2.08;;;18.70;28.50;;;;;;5012838;28;20115;-71
2022/04/18 11:17:11;;;;;;;6.70;2.03;;;18.70;28.80;;;;;;5012737;28;20109;-78
2022/04/18 11:19:41;;;;;;;6.20;2.20;;;18.80;27.90;;;;;;5012855;28;20042;-75
2022/04/18 11:22:17;;;;;;;9.75;2.85;;;18.90;28.20;;;;;;5012503;28;20152;-75
2022/04/18 11:24:52;;;;;;;5.85;2.17;;;19.00;28.50;;;;;;5012517;28;20030;-75
2022/04/18 11:27:27;;;;;;;5.97;2.03;;;19.10;28.00;;;;;;5012708;28;20026;-76
2022/04/18 11:29:55;;;;;;;7.53;2.28;;;19.10;27.90;;;;;;5012509;28;20436;-75
2022/04/18 11:32:26;;;;;;;7.68;2.53;;;19.20;28.00;;;;;;5012517;28;20026;-71
2022/04/18 11:34:54;;;;;;;9.18;2.50;;;19.30;28.40;;;;;;5012460;28;20476;-78
2022/04/18 11:37:27;;;;;;;3.40;1.83;;;19.40;28.20;;;;;;5011007;28;20030;-72
2022/04/18 11:39:55;;;;;;;6.60;2.93;;;19.60;28.00;;;;;;5012369;28;20042;-75
2022/04/18 11:42:27;;;;;;;6.78;3.33;;;19.70;28.10;;;;;;5012281;28;20497;-71
2022/04/18 11:44:55;;;;;;;8.25;2.25;;;19.80;28.50;;;;;;5012613;28;20187;-75
2022/04/18 11:47:22;;;;;;;9.18;2.30;;;19.80;28.10;;;;;;5012060;28;20143;-71
2022/04/18 11:49:50;;;;;;;5.97;2.33;;;19.90;28.10;;;;;;5012466;28;20094;-76
2022/04/18 11:52:26;;;;;;;8.85;4.18;;;19.80;27.70;;;;;;5012307;28;20030;-74
2022/04/18 11:54:59;;;;;;;6.18;2.20;;;19.70;27.50;;;;;;5012255;28;20021;-73
2022/04/18 11:57:27;;;;;;;;;;;19.70;27.60;;;;;;5012688;28;20376;-72
2022/04/18 11:59:53;;;;;;;7.40;2.53;;;19.80;27.00;;;;;;5012290;28;19917;-72
2022/04/18 12:08:12;;;;;;;5.82;2.20;;;19.90;27.30;;;;;;5012284;28;20429;-71
2022/04/18 12:10:42;;;;;;;4.50;2.17;;;19.90;27.50;;;;;;5012949;28;20479;-72
2022/04/18 12:13:11;;;;;;;6.45;1.83;;;20.10;27.60;;;;;;5015344;28;20459;-72
2022/04/18 12:15:37;;;;;;;9.10;2.47;;;20.20;27.80;;;;;;5015279;28;20355;-73
2022/04/18 12:18:14;;;;;;;6.03;2.40;;;20.30;27.60;;;;;;5015347;28;20482;-72
2022/04/18 12:20:44;;;;;;;6.30;1.95;;;20.50;27.90;;;;;;5015620;28;20045;-72
2022/04/18 12:23:19;;;;;;;6.63;2.50;;;20.60;27.90;;;;;;5015802;28;20032;-72
2022/04/18 12:25:55;;;;;;;5.93;2.22;;;20.70;27.40;;;;;;5015502;28;20440;-74
2022/04/18 12:28:23;;;;;;;6.72;2.35;;;20.70;27.70;;;;;;5015501;28;20474;-72
2022/04/18 12:30:50;;;;;;;6.78;2.42;;;20.70;27.80;;;;;;5013921;28;20038;-72
2022/04/18 12:33:23;;;;;;;7.78;2.35;;;20.70;27.30;;;;;;5015175;28;20505;-72
2022/04/18 12:35:54;;;;;;;8.05;3.85;;;20.50;27.00;;;;;;5014371;28;20172;-73
2022/04/18 12:38:29;;;;;;;6.03;2.35;;;20.60;27.20;;;;;;5015206;28;20328;-72
2022/04/18 12:40:58;;;;;;;7.72;3.60;;;20.50;27.10;;;;;;5014035;28;20033;-72
2022/04/18 12:43:29;;;;;;;7.88;4.25;;;20.50;27.10;;;;;;5015176;28;20022;-72
2022/04/18 12:46:22;;;;;;;11.80;5.20;;;20.60;27.20;;;;;;5014204;28;20104;-70
2022/04/18 12:48:51;;;;;;;4.88;2.35;;;20.70;26.90;;;;;;5015313;28;20060;-73
2022/04/18 12:51:16;;;;;;;6.53;2.30;;;20.90;27.30;;;;;;5015318;28;20030;-71
2022/04/18 12:53:50;;;;;;;5.40;2.30;;;21.00;27.30;;;;;;5015281;28;20022;-75
2022/04/18 12:56:21;;;;;;;6.18;2.10;;;21.10;27.40;;;;;;5015454;28;20030;-74
2022/04/18 12:58:49;;;;;;;5.15;2.55;;;21.20;26.90;;;;;;5015077;28;20048;-75
2022/04/18 13:01:35;;;;;;;7.38;2.83;;;21.20;27.30;;;;;;5015081;28;20080;-73
2022/04/18 13:04:17;;;;;;;4.97;2.15;;;21.20;27.30;;;;;;5014806;28;20072;-76
2022/04/18 13:06:43;;;;;;;5.72;2.20;;;21.30;27.00;;;;;;5014544;28;20032;-76
2022/04/18 13:09:10;;;;;;;5.10;2.15;;;21.30;27.30;;;;;;5014819;28;20037;-75
2022/04/18 13:11:37;;;;;;;6.50;2.10;;;21.40;27.50;;;;;;5014817;28;20026;-74
2022/04/18 13:14:04;;;;;;;7.03;2.50;;;21.50;27.50;;;;;;5014723;28;20026;-77
2022/04/18 13:16:29;;;;;;;5.07;1.90;;;21.60;27.40;;;;;;5015069;28;20026;-76
2022/04/18 13:19:09;;;;;;;8.68;1.90;;;21.60;27.00;;;;;;5014601;28;20483;-78
2022/04/18 13:21:35;;;;;;;6.18;2.00;;;21.50;26.40;;;;;;5014427;28;20046;-76
2022/04/18 13:24:02;;;;;;;3.60;1.98;;;21.30;26.80;;;;;;5014680;28;20387;-75